Time;durP1;ratioP1;P1;durP2;ratioP2;P2;SDS_P1;SDS_P2;PMS_P1;PMS_P2;Temp;Humidity;BMP_temperature;BMP_pressure;BME280_temperature;BME280_humidity;BME280_pressure;Samples;Min_cycle;Max_cycle;Signal;HPM_P1;HPM_P2
2021/10/23 00:03:25;;;;;;;6.78;5.68;;;23.20;60.30;;;;;;31802283;28;20103;-47
2021/10/23 00:18:27;;;;;;;6.45;5.15;;;23.10;60.10;;;;;;31825503;28;20155;-56
2021/10/23 00:33:29;;;;;;;6.65;5.28;;;23.00;60.00;;;;;;31857945;28;20095;-57
2021/10/23 00:48:31;;;;;;;8.57;5.20;;;23.00;60.20;;;;;;31885779;28;20055;-50
2021/10/23 01:03:34;;;;;;;6.35;5.28;;;22.90;60.00;;;;;;31885489;28;20045;-55
2021/10/23 01:18:36;;;;;;;5.85;5.25;;;22.90;60.10;;;;;;31883568;28;20063;-55
2021/10/23 01:33:38;;;;;;;7.53;5.03;;;22.90;60.50;;;;;;31882412;28;20102;-56
2021/10/23 01:48:40;;;;;;;8.95;4.88;;;22.80;60.30;;;;;;31878590;27;20059;-44
2021/10/23 02:03:42;;;;;;;6.22;5.10;;;22.80;60.30;;;;;;31876649;28;20054;-51
2021/10/23 02:18:44;;;;;;;7.15;5.53;;;22.80;60.20;;;;;;31856089;28;20042;-47
2021/10/23 02:33:46;;;;;;;6.78;5.18;;;22.80;60.20;;;;;;31872702;28;20057;-50
2021/10/23 02:48:48;;;;;;;5.28;4.40;;;22.70;60.60;;;;;;31870441;28;20088;-58
2021/10/23 03:03:51;;;;;;;4.75;4.07;;;23.10;60.70;;;;;;31870983;28;20124;-48
2021/10/23 03:18:53;;;;;;;4.78;4.10;;;23.40;60.00;;;;;;31869578;28;20044;-48
2021/10/23 03:33:55;;;;;;;3.95;3.63;;;23.30;60.10;;;;;;31876231;28;20051;-55
2021/10/23 03:48:57;;;;;;;5.03;4.38;;;23.20;60.00;;;;;;32011054;27;20067;-47
2021/10/23 04:03:59;;;;;;;4.88;4.38;;;23.20;59.90;;;;;;32022646;27;20102;-58
2021/10/23 04:19:01;;;;;;;6.60;4.60;;;23.10;60.10;;;;;;32017597;27;20047;-45
2021/10/23 04:34:03;;;;;;;5.32;4.25;;;23.10;59.90;;;;;;31999714;27;20038;-57
2021/10/23 04:49:05;;;;;;;6.20;4.45;;;23.00;60.10;;;;;;32012980;27;20046;-57
2021/10/23 05:04:07;;;;;;;5.45;4.95;;;22.90;59.80;;;;;;32011354;27;20094;-47
2021/10/23 05:19:09;;;;;;;6.53;5.57;;;22.90;59.90;;;;;;32008089;27;20071;-51
2021/10/23 05:34:11;;;;;;;6.65;5.25;;;22.90;60.10;;;;;;32006501;27;20055;-47
2021/10/23 05:49:13;;;;;;;6.28;5.40;;;22.80;59.70;;;;;;32001753;27;20133;-49
2021/10/23 06:04:16;;;;;;;10.27;5.75;;;22.70;59.60;;;;;;32003561;27;20487;-56
2021/10/23 06:19:18;;;;;;;19.13;7.68;;;23.10;60.70;;;;;;31989807;27;20043;-57
2021/10/23 06:34:20;;;;;;;25.75;14.07;;;23.30;60.80;;;;;;31996858;27;20047;-46
2021/10/23 06:49:23;;;;;;;23.20;13.48;;;23.20;60.10;;;;;;31981862;27;20077;-53
2021/10/23 07:04:26;;;;;;;32.15;17.25;;;23.10;59.90;;;;;;31997739;28;20134;-55
2021/10/23 07:19:29;;;;;;;31.48;18.90;;;23.00;59.50;;;;;;32013847;27;20066;-56
2021/10/23 07:34:31;;;;;;;25.02;16.65;;;22.80;58.70;;;;;;32017207;27;20084;-45
2021/10/23 07:49:33;;;;;;;27.40;18.35;;;23.10;60.00;;;;;;32009999;27;20039;-56
2021/10/23 08:04:35;;;;;;;40.35;18.00;;;23.30;59.90;;;;;;32023359;27;20067;-56
2021/10/23 08:19:37;;;;;;;28.33;19.13;;;23.40;60.30;;;;;;31996144;27;20039;-57
2021/10/23 08:34:39;;;;;;;36.63;21.08;;;23.30;60.90;;;;;;32022514;27;20097;-58
2021/10/23 08:49:44;;;;;;;31.42;19.67;;;23.20;61.30;;;;;;31945752;27;22066;-58
2021/10/23 09:04:48;;;;;;;33.75;18.83;;;23.10;61.30;;;;;;31960293;27;20099;-50
2021/10/23 09:19:51;;;;;;;25.10;17.67;;;23.00;61.00;;;;;;31969982;27;20078;-58
2021/10/23 09:34:53;;;;;;;25.38;17.58;;;23.00;60.90;;;;;;31900017;27;20051;-58
2021/10/23 09:50:09;;;;;;;19.73;14.63;;;22.90;61.00;;;;;;31940702;27;20047;-59
2021/10/23 10:05:11;;;;;;;17.77;13.40;;;23.20;61.40;;;;;;31890904;27;20051;-58
2021/10/23 10:20:13;;;;;;;18.75;12.00;;;23.40;60.70;;;;;;31958889;27;20051;-59
2021/10/23 10:35:44;;;;;;;17.60;12.45;;;23.30;60.40;;;;;;31952917;27;20039;-57
2021/10/23 10:51:07;;;;;;;17.83;11.88;;;23.30;61.00;;;;;;31977082;27;20043;-57
2021/10/23 11:06:31;;;;;;;12.93;11.00;;;23.20;60.70;;;;;;31965440;28;20063;-57
2021/10/23 11:21:34;;;;;;;13.57;11.23;;;23.20;61.00;;;;;;31983999;28;20062;-57
2021/10/23 11:36:36;;;;;;;16.73;11.23;;;23.20;61.20;;;;;;31888284;28;20072;-58
2021/10/23 11:51:39;;;;;;;15.45;10.93;;;23.00;61.50;;;;;;31880154;27;20091;-55
2021/10/23 12:06:43;;;;;;;15.57;11.02;;;23.00;62.20;;;;;;31974534;27;20044;-56
2021/10/23 12:21:55;;;;;;;28.25;14.73;;;23.00;61.50;;;;;;31957147;27;20408;-57
2021/10/23 12:36:58;;;;;;;16.73;10.82;;;23.30;61.60;;;;;;31920104;27;20099;-57
2021/10/23 12:51:59;;;;;;;14.52;10.52;;;23.40;60.80;;;;;;31943058;27;20035;-52
2021/10/23 13:07:02;;;;;;;17.52;10.55;;;23.30;60.60;;;;;;31951374;27;20052;-51
2021/10/23 13:22:05;;;;;;;14.88;10.23;;;23.20;60.40;;;;;;31909193;27;20058;-58
2021/10/23 13:37:07;;;;;;;11.55;9.93;;;23.10;60.30;;;;;;31918405;27;20099;-57
2021/10/23 13:52:09;;;;;;;14.55;10.10;;;23.00;60.40;;;;;;31910945;27;20063;-46
2021/10/23 14:07:11;;;;;;;12.85;9.52;;;23.00;60.40;;;;;;31904479;27;20097;-47
2021/10/23 14:22:17;;;;;;;16.45;9.73;;;22.90;60.50;;;;;;31893126;27;20047;-49
2021/10/23 14:37:19;;;;;;;14.80;9.85;;;23.00;60.50;;;;;;31920010;27;20078;-58
2021/10/23 14:52:21;;;;;;;14.95;8.68;;;23.30;60.50;;;;;;31949366;27;20039;-56
2021/10/23 15:07:23;;;;;;;23.40;10.13;;;23.40;60.50;;;;;;31948983;27;20278;-48
2021/10/23 15:22:25;;;;;;;23.85;13.32;;;23.50;60.70;;;;;;31923283;27;20091;-51
2021/10/23 15:37:27;;;;;;;22.90;16.00;;;23.50;62.00;;;;;;31911445;27;20118;-59
2021/10/23 15:52:29;;;;;;;28.52;19.67;;;23.60;62.70;;;;;;31989945;27;20092;-49
2021/10/23 16:07:31;;;;;;;25.85;18.73;;;23.60;64.00;;;;;;31989639;27;20096;-50
2021/10/23 16:22:33;;;;;;;25.77;17.95;;;23.60;63.70;;;;;;31611241;27;10000208;-46
2021/10/23 16:37:38;;;;;;;38.55;18.90;;;23.60;63.50;;;;;;31911476;27;20130;-54
2021/10/23 16:52:40;;;;;;;24.38;18.35;;;23.50;64.10;;;;;;31959058;27;20103;-52
2021/10/23 17:07:43;;;;;;;24.27;17.73;;;23.40;66.00;;;;;;31927478;27;20070;-52
2021/10/23 17:22:45;;;;;;;39.10;17.45;;;23.40;63.80;;;;;;31966965;27;20043;-54
2021/10/23 17:37:48;;;;;;;22.88;15.00;;;23.30;63.40;;;;;;31944919;27;20048;-47
2021/10/23 17:52:50;;;;;;;23.30;14.35;;;23.30;63.60;;;;;;31845170;28;20093;-49
2021/10/23 18:07:56;;;;;;;22.75;12.50;;;23.40;63.50;;;;;;31827939;28;20108;-51
2021/10/23 18:22:58;;;;;;;18.67;12.38;;;23.40;63.60;;;;;;31846130;28;20043;-49
2021/10/23 18:38:00;;;;;;;17.60;11.65;;;23.40;64.10;;;;;;31840941;27;20048;-49
2021/10/23 18:53:03;;;;;;;16.65;10.63;;;23.40;63.90;;;;;;31856809;27;20039;-53
2021/10/23 19:08:06;;;;;;;22.10;10.52;;;23.40;64.00;;;;;;31798326;27;20209;-57
2021/10/23 19:23:08;;;;;;;18.10;9.68;;;23.40;63.50;;;;;;31842842;27;20073;-54
2021/10/23 19:38:10;;;;;;;19.75;16.52;;;23.50;63.80;;;;;;31815808;27;20093;-45
2021/10/23 19:53:12;;;;;;;5.28;3.65;;;23.30;63.10;;;;;;31875614;28;20055;-46
2021/10/23 20:08:15;;;;;;;0.47;0.47;;;23.30;63.30;;;;;;31806787;28;20052;-57
2021/10/23 20:23:17;;;;;;;0.20;0.20;;;23.30;63.50;;;;;;31857134;28;20072;-45
2021/10/23 20:38:21;;;;;;;0.20;0.20;;;23.20;63.60;;;;;;31828436;28;20074;-58
2021/10/23 20:53:24;;;;;;;0.10;0.10;;;23.40;62.90;;;;;;31844802;28;20046;-52
2021/10/23 21:08:26;;;;;;;0.10;0.10;;;23.50;62.80;;;;;;31837709;28;20090;-53
2021/10/23 21:23:30;;;;;;;39.42;31.23;;;23.50;62.80;;;;;;31503105;28;10001084;-44
2021/10/23 21:38:33;;;;;;;10.50;9.05;;;23.40;62.50;;;;;;31887124;27;20047;-46
2021/10/23 21:53:37;;;;;;;6.50;5.38;;;23.40;62.60;;;;;;31987294;27;20556;-47
2021/10/23 22:08:40;;;;;;;3.42;3.13;;;23.50;62.80;;;;;;31961667;27;20113;-56
2021/10/23 22:23:43;;;;;;;24.02;3.35;;;23.50;62.70;;;;;;31954213;27;20069;-57
2021/10/23 22:38:46;;;;;;;3.13;1.90;;;23.40;62.90;;;;;;31941900;27;20106;-57
2021/10/23 22:53:49;;;;;;;2.30;1.17;;;23.40;63.00;;;;;;31943616;27;20103;-45
2021/10/23 23:08:51;;;;;;;0.73;0.73;;;23.30;62.90;;;;;;31940908;27;20116;-45
2021/10/23 23:23:53;;;;;;;1.45;0.75;;;23.30;62.90;;;;;;31948006;28;20051;-47
2021/10/23 23:38:55;;;;;;;0.40;0.40;;;23.20;63.00;;;;;;31894206;27;20505;-58
2021/10/23 23:53:57;;;;;;;1.08;0.40;;;23.20;62.90;;;;;;31904335;27;20042;-58
